カーブル の空港の天気 - METARとTAF

カーブル国際空港 ( OAKB / KBL ) - アフガニスタン カーブル
飛行場実況気象(Metar)
観測時間10/21 19:20 AFT (10/21 14:50 UTC)
風向・風速北 6m/s 瞬間風速11m/s
視程10km以上
天気現象
なし
気温17℃
湿度9%
気圧1020hPa
METAROAKB 211450Z 36011G21KT CAVOK 17/M16 Q1020 RMK A3012 BLU BLU
過去の天気等 Google飛行場航空写真 Wunderground天気予報

過去48時間のMETAR

飛行場予報(TAF)
発表時間: 10/21 16:55 AFT (10/21 12:25 UTC)
予報対象時間: 21日16時 AFT ~ 22日16時 AFT
風向・風速北 6m/s
視程10km以上
なし
21日16時 AFT ~ 21日20時 AFT に一時的に
風向・風速北北東 8m/s 瞬間風速 13m/s
視程5000m
天気現象弱い高い風塵
21日22時 AFT ~ 22日24時 AFT に徐々に
風向・風速不定 1m/s
22日4時 AFT ~ 22日8時 AFT に一時的に
視程5000m
天気現象煙霧
22日14時 AFT ~ 22日16時 AFT に徐々に
風向・風速北北東 6m/s
TAF OAKB 211225Z 2112/2212 36012KT CAVOK
TEMPO 2112/2116 02015G25KT 5000 -BLDU
BECMG 2118/2120 VRB02KT
TEMPO 2200/2204 5000 HZ
BECMG 2210/2212 02012KT